Time;durP1;ratioP1;P1;durP2;ratioP2;P2;SDS_P1;SDS_P2;PMS_P1;PMS_P2;Temp;Humidity;BMP_temperature;BMP_pressure;BME280_temperature;BME280_humidity;BME280_pressure;Samples;Min_cycle;Max_cycle;Signal;HPM_P1;HPM_P2
2023/03/07 00:01:51;;;;;;;17.77;9.18;;;179.40;2252.80;;;;;;4969514;28;20385;-56
2023/03/07 00:04:17;;;;;;;16.25;9.45;;;179.20;2252.80;;;;;;4973543;28;20050;-57
2023/03/07 00:06:42;;;;;;;18.63;12.05;;;154.50;2252.80;;;;;;4973374;28;20019;-55
2023/03/07 00:09:08;;;;;;;18.58;11.48;;;154.30;2252.80;;;;;;4973837;28;20027;-56
2023/03/07 00:11:34;;;;;;;21.15;12.48;;;154.50;2252.80;;;;;;4974755;28;20026;-54
2023/03/07 00:13:59;;;;;;;28.30;20.35;;;154.40;2252.80;;;;;;4973729;28;20033;-55
2023/03/07 00:16:25;;;;;;;30.60;17.58;;;154.50;2252.80;;;;;;4974876;28;20030;-56
2023/03/07 00:18:51;;;;;;;25.98;17.58;;;179.20;2252.80;;;;;;4974234;28;20442;-55
2023/03/07 00:21:19;;;;;;;72.25;46.95;;;179.20;2252.80;;;;;;4974514;28;20146;-53
2023/03/07 00:23:46;;;;;;;85.80;54.17;;;179.30;2252.80;;;;;;4974227;28;20023;-55
2023/03/07 00:26:14;;;;;;;72.38;48.15;;;179.40;2252.80;;;;;;4974077;28;20097;-53
2023/03/07 00:28:40;;;;;;;145.55;80.25;;;179.50;2252.80;;;;;;4974280;28;20078;-57
2023/03/07 00:31:08;;;;;;;120.40;72.32;;;179.60;2252.80;;;;;;4974256;28;20027;-57
2023/03/07 00:33:34;;;;;;;87.68;50.72;;;179.70;2252.80;;;;;;4974461;28;20027;-55
2023/03/07 00:36:05;;;;;;;145.93;96.03;;;179.70;2252.80;;;;;;4973891;28;20122;-54
2023/03/07 00:38:32;;;;;;;105.65;60.80;;;179.70;2252.80;;;;;;4973845;28;20489;-55
2023/03/07 00:41:00;;;;;;;106.82;59.85;;;179.70;2252.80;;;;;;4973758;28;20029;-54
2023/03/07 00:43:26;;;;;;;151.23;84.07;;;179.80;2252.80;;;;;;4974201;28;20442;-55
2023/03/07 00:45:52;;;;;;;89.53;51.03;;;179.80;2252.80;;;;;;4973912;28;20025;-55
2023/03/07 00:48:18;;;;;;;48.70;26.65;;;179.80;2252.80;;;;;;4973842;28;20094;-55
2023/03/07 00:50:44;;;;;;;152.98;93.63;;;179.90;2252.80;;;;;;4961370;28;20370;-54
2023/03/07 00:53:10;;;;;;;147.20;89.53;;;179.80;2252.80;;;;;;4973320;28;20031;-57
2023/03/07 00:55:36;;;;;;;67.88;41.03;;;179.80;2252.80;;;;;;4974105;28;20019;-55
2023/03/07 00:58:02;;;;;;;125.75;84.78;;;179.80;2252.80;;;;;;4973148;28;20489;-57
2023/03/07 01:00:27;;;;;;;34.45;23.27;;;179.90;2252.80;;;;;;4973591;28;20448;-56
2023/03/07 01:02:53;;;;;;;109.07;58.38;;;179.60;2252.80;;;;;;4973713;28;20031;-54
2023/03/07 01:05:19;;;;;;;82.53;41.95;;;179.50;2252.80;;;;;;4973842;28;20109;-55
2023/03/07 01:07:45;;;;;;;72.75;40.80;;;179.40;2252.80;;;;;;4973747;28;20031;-56
2023/03/07 01:10:11;;;;;;;63.58;38.33;;;179.40;2252.80;;;;;;4973337;28;20019;-57
2023/03/07 01:12:38;;;;;;;24.15;14.52;;;179.20;2252.80;;;;;;4973496;28;20183;-56
2023/03/07 01:15:05;;;;;;;54.08;41.67;;;179.30;2252.80;;;;;;4972790;28;20058;-55
2023/03/07 01:17:32;;;;;;;59.80;36.40;;;154.30;2252.80;;;;;;4973403;28;20373;-53
2023/03/07 01:19:58;;;;;;;54.55;34.35;;;154.10;2252.80;;;;;;4973130;28;20114;-56
2023/03/07 01:22:23;;;;;;;24.60;17.00;;;154.00;2252.80;;;;;;4973476;28;20126;-55
2023/03/07 01:24:49;;;;;;;36.45;18.80;;;154.10;2252.80;;;;;;4973000;28;20031;-55
2023/03/07 01:27:15;;;;;;;21.85;11.30;;;154.20;2252.80;;;;;;4973265;28;20106;-55
2023/03/07 01:29:40;;;;;;;17.73;11.38;;;154.30;2252.80;;;;;;4972852;28;20483;-55
2023/03/07 01:32:06;;;;;;;19.27;12.70;;;154.10;2252.80;;;;;;4973260;28;20429;-54
2023/03/07 01:34:32;;;;;;;16.05;12.27;;;153.90;2252.80;;;;;;4973024;28;20034;-55
2023/03/07 01:36:57;;;;;;;16.58;9.32;;;153.90;2252.80;;;;;;4960742;28;20462;-56
2023/03/07 01:39:23;;;;;;;10.48;6.18;;;154.00;2252.80;;;;;;4966372;28;20409;-56
2023/03/07 01:41:49;;;;;;;12.10;9.98;;;154.10;2252.80;;;;;;4966083;28;20081;-55
2023/03/07 01:44:24;;;;;;;18.27;12.48;;;154.20;2252.80;;;;;;4966932;28;20122;-54
2023/03/07 01:46:53;;;;;;;12.07;6.72;;;154.30;2252.80;;;;;;4967108;28;20031;-55
2023/03/07 01:49:41;;;;;;;17.55;10.07;;;154.40;2252.80;;;;;;4972318;28;20058;-56
2023/03/07 01:52:24;;;;;;;16.73;8.85;;;154.50;2252.80;;;;;;4972628;28;20496;-56
2023/03/07 01:54:54;;;;;;;17.85;10.88;;;179.20;2252.80;;;;;;4972051;28;20486;-55
2023/03/07 01:57:30;;;;;;;29.50;17.42;;;154.40;2252.80;;;;;;4959915;28;20031;-56
2023/03/07 01:59:59;;;;;;;71.00;35.38;;;154.30;2252.80;;;;;;4972520;28;20039;-54
2023/03/07 02:02:26;;;;;;;45.78;26.73;;;154.30;2252.80;;;;;;4972965;28;20484;-55
2023/03/07 02:05:22;;;;;;;31.88;20.75;;;154.30;2252.80;;;;;;4972447;28;20034;-55
2023/03/07 02:07:50;;;;;;;28.20;15.52;;;154.40;2252.80;;;;;;4972424;28;20226;-56
2023/03/07 02:10:18;;;;;;;20.35;13.70;;;154.40;2252.80;;;;;;4972265;28;20381;-57
2023/03/07 02:12:44;;;;;;;15.93;9.52;;;154.50;2252.80;;;;;;4972600;28;20473;-57
2023/03/07 02:15:12;;;;;;;12.95;7.43;;;154.40;2252.80;;;;;;4972329;28;20031;-56
2023/03/07 02:17:43;;;;;;;11.70;8.48;;;154.30;2252.80;;;;;;4972126;28;20027;-57
2023/03/07 02:20:19;;;;;;;11.52;7.60;;;154.20;2252.80;;;;;;4971804;28;20039;-55
2023/03/07 02:22:47;;;;;;;29.23;14.65;;;154.10;2252.80;;;;;;4971823;28;20031;-56
2023/03/07 02:25:29;;;;;;;40.22;23.95;;;154.10;2252.80;;;;;;4971984;28;20470;-54
2023/03/07 02:27:56;;;;;;;33.10;18.20;;;154.10;2252.80;;;;;;4972574;28;20014;-55
2023/03/07 02:30:24;;;;;;;27.23;17.73;;;154.10;2252.80;;;;;;4972008;28;20015;-56
2023/03/07 02:32:50;;;;;;;17.02;10.93;;;154.10;2252.80;;;;;;4971512;28;20022;-56
2023/03/07 02:35:20;;;;;;;17.58;10.70;;;154.20;2252.80;;;;;;4972116;28;20034;-56
2023/03/07 02:37:50;;;;;;;15.60;9.88;;;154.20;2252.80;;;;;;4971676;28;20030;-56
2023/03/07 02:40:18;;;;;;;13.63;8.43;;;154.20;2252.80;;;;;;4971985;28;20030;-57
2023/03/07 02:42:46;;;;;;;11.02;8.63;;;154.30;2252.80;;;;;;4971684;28;20031;-55
2023/03/07 02:45:16;;;;;;;222.45;93.32;;;154.20;2252.80;;;;;;4971327;28;20493;-55
2023/03/07 02:47:42;;;;;;;349.45;142.18;;;154.20;2252.80;;;;;;4971914;28;20381;-55
2023/03/07 02:50:09;;;;;;;250.38;98.93;;;154.10;2252.80;;;;;;4971203;28;20565;-56
2023/03/07 02:52:35;;;;;;;143.90;62.22;;;154.00;2252.80;;;;;;4971779;28;20425;-57
2023/03/07 02:55:01;;;;;;;100.05;43.15;;;154.00;2252.80;;;;;;4970988;28;20033;-55
2023/03/07 02:57:26;;;;;;;93.38;45.22;;;154.00;2252.80;;;;;;4971744;28;20453;-55
2023/03/07 02:59:52;;;;;;;96.65;48.55;;;154.00;2252.80;;;;;;4953567;28;20039;-55
2023/03/07 03:02:18;;;;;;;66.43;35.22;;;153.90;2252.80;;;;;;4971268;28;20027;-55
2023/03/07 03:04:44;;;;;;;61.28;33.03;;;153.90;2252.80;;;;;;4971317;28;20559;-55
2023/03/07 03:07:09;;;;;;;46.03;25.73;;;154.00;2252.80;;;;;;4971382;28;20433;-55
2023/03/07 03:09:35;;;;;;;17.15;9.45;;;154.00;2252.80;;;;;;4971129;28;20023;-55
2023/03/07 03:12:01;;;;;;;23.65;13.43;;;154.00;2252.80;;;;;;4971423;28;20106;-55
2023/03/07 03:14:26;;;;;;;113.65;62.42;;;153.80;2252.80;;;;;;4971548;28;20026;-55
2023/03/07 03:16:53;;;;;;;30.85;19.27;;;153.60;2252.80;;;;;;4971039;28;20158;-57
2023/03/07 03:19:19;;;;;;;39.20;21.92;;;128.90;2252.80;;;;;;4970610;28;20132;-55
2023/03/07 03:21:44;;;;;;;16.42;10.43;;;128.90;2252.80;;;;;;4971298;28;20022;-56
2023/03/07 03:24:10;;;;;;;30.00;15.32;;;128.90;2252.80;;;;;;4970726;28;20389;-55
2023/03/07 03:26:37;;;;;;;18.02;10.98;;;128.90;2252.80;;;;;;4971113;28;20098;-54
2023/03/07 03:29:04;;;;;;;16.52;9.68;;;128.90;2252.80;;;;;;4971178;28;20490;-54
2023/03/07 03:31:30;;;;;;;15.20;9.32;;;128.90;2252.80;;;;;;4970819;28;20023;-56
2023/03/07 03:33:57;;;;;;;11.30;7.32;;;153.60;2252.80;;;;;;4971076;28;20022;-55
2023/03/07 03:36:27;;;;;;;12.50;6.25;;;153.60;2252.80;;;;;;4970981;28;20481;-53
2023/03/07 03:38:54;;;;;;;15.48;8.65;;;128.90;2252.80;;;;;;4970416;28;20043;-56
2023/03/07 03:41:20;;;;;;;23.80;15.13;;;128.90;2252.80;;;;;;4971017;28;20393;-55
2023/03/07 03:43:46;;;;;;;35.80;17.65;;;128.80;2252.80;;;;;;4970810;28;20033;-55
2023/03/07 03:46:12;;;;;;;20.90;13.77;;;128.90;2252.80;;;;;;4969836;28;20031;-55
2023/03/07 03:48:37;;;;;;;15.57;10.05;;;153.60;2252.80;;;;;;4970533;28;20401;-56
2023/03/07 03:51:09;;;;;;;14.00;7.80;;;153.70;2252.80;;;;;;4971068;28;20485;-55
2023/03/07 03:53:37;;;;;;;12.18;6.93;;;128.90;2252.80;;;;;;4967452;28;21303;-55
2023/03/07 03:56:15;;;;;;;15.88;8.43;;;128.90;2252.80;;;;;;4951359;28;20488;-55
2023/03/07 03:58:41;;;;;;;16.52;11.13;;;153.70;2252.80;;;;;;4964398;28;20035;-54
2023/03/07 04:01:09;;;;;;;21.20;14.73;;;153.70;2252.80;;;;;;4970608;28;20046;-55
2023/03/07 04:03:41;;;;;;;17.80;11.80;;;153.70;2252.80;;;;;;4970548;28;20027;-55
2023/03/07 04:06:09;;;;;;;48.53;26.60;;;153.70;2252.80;;;;;;4952511;28;20575;-57
2023/03/07 04:08:36;;;;;;;38.33;21.95;;;153.60;2252.80;;;;;;4969797;28;20485;-55
2023/03/07 04:11:03;;;;;;;32.83;21.23;;;153.60;2252.80;;;;;;4970244;28;20053;-55
2023/03/07 04:13:30;;;;;;;37.10;23.15;;;153.70;2252.80;;;;;;4970032;28;20030;-55
2023/03/07 04:15:55;;;;;;;35.45;21.35;;;153.70;2252.80;;;;;;4970497;28;20014;-56
2023/03/07 04:18:22;;;;;;;30.75;18.02;;;153.70;2252.80;;;;;;4969407;28;20031;-55
2023/03/07 04:20:49;;;;;;;33.60;19.95;;;153.70;2252.80;;;;;;4970027;28;20037;-55
2023/03/07 04:23:16;;;;;;;37.70;19.90;;;153.80;2252.80;;;;;;4970855;28;20023;-56
2023/03/07 04:25:56;;;;;;;37.85;22.25;;;153.80;2252.80;;;;;;4970350;28;20027;-55
2023/03/07 04:28:24;;;;;;;36.78;25.08;;;153.60;2252.80;;;;;;4970046;28;20034;-55
2023/03/07 04:30:51;;;;;;;34.00;21.48;;;153.70;2252.80;;;;;;4970199;28;20033;-57
2023/03/07 04:33:18;;;;;;;16.83;11.85;;;153.80;2252.80;;;;;;4970877;28;20035;-54
2023/03/07 04:35:44;;;;;;;28.17;16.48;;;153.70;2252.80;;;;;;4953750;28;20436;-55
2023/03/07 04:38:10;;;;;;;16.25;10.93;;;153.60;2252.80;;;;;;4970244;28;20456;-55
2023/03/07 04:40:36;;;;;;;25.25;13.38;;;153.60;2252.80;;;;;;4970199;28;20105;-55
2023/03/07 04:43:04;;;;;;;18.00;8.27;;;128.90;2252.80;;;;;;4970238;28;20110;-55
2023/03/07 04:45:34;;;;;;;14.15;10.10;;;153.70;2252.80;;;;;;4969997;28;20023;-55
2023/03/07 04:48:00;;;;;;;13.63;7.97;;;153.70;2252.80;;;;;;4970059;28;20019;-54
2023/03/07 04:50:25;;;;;;;13.63;8.73;;;153.60;2252.80;;;;;;4973958;28;20065;-54
2023/03/07 04:52:51;;;;;;;12.45;7.20;;;153.70;2252.80;;;;;;4973818;28;20015;-56
2023/03/07 04:55:18;;;;;;;15.93;8.18;;;153.80;2252.80;;;;;;4973797;28;20495;-56
2023/03/07 04:57:45;;;;;;;16.77;9.90;;;128.90;2252.80;;;;;;4973887;28;20035;-54
2023/03/07 05:00:12;;;;;;;30.23;16.13;;;128.90;2252.80;;;;;;4973408;28;20375;-53
2023/03/07 05:02:38;;;;;;;18.73;8.18;;;128.90;2252.80;;;;;;4967661;28;20038;-55
2023/03/07 05:05:05;;;;;;;16.50;9.68;;;128.60;2252.80;;;;;;4964425;28;20481;-54
2023/03/07 05:07:31;;;;;;;25.63;11.88;;;128.60;2252.80;;;;;;4973192;28;20026;-56
2023/03/07 05:09:57;;;;;;;8.77;5.78;;;128.50;2252.80;;;;;;4973513;28;20023;-56
2023/03/07 05:12:23;;;;;;;11.05;5.38;;;128.50;2252.80;;;;;;4973614;28;20608;-55
2023/03/07 05:14:49;;;;;;;12.07;7.10;;;128.40;2252.80;;;;;;4956267;28;20037;-55
2023/03/07 05:17:15;;;;;;;10.82;6.28;;;128.30;2252.80;;;;;;4955819;28;20062;-55
2023/03/07 05:19:41;;;;;;;12.23;7.55;;;128.40;2252.80;;;;;;4972996;28;20058;-55
2023/03/07 05:22:08;;;;;;;10.43;5.78;;;128.30;2252.80;;;;;;4973502;28;20027;-55
2023/03/07 05:24:34;;;;;;;11.73;6.57;;;128.30;2252.80;;;;;;4973176;28;20061;-55
2023/03/07 05:27:01;;;;;;;15.63;7.97;;;128.40;2252.80;;;;;;4972900;28;20031;-57
2023/03/07 05:29:27;;;;;;;12.48;7.80;;;128.40;2252.80;;;;;;4960258;28;20101;-55
2023/03/07 05:31:53;;;;;;;10.70;6.78;;;128.30;2252.80;;;;;;4973508;28;20030;-59
2023/03/07 05:34:19;;;;;;;8.80;5.97;;;128.30;2252.80;;;;;;4972971;28;20082;-60
2023/03/07 05:36:45;;;;;;;16.23;9.13;;;128.50;2252.80;;;;;;4973285;28;20030;-59
2023/03/07 05:39:10;;;;;;;11.73;6.18;;;128.40;2252.80;;;;;;4972706;28;20066;-66
2023/03/07 05:41:36;;;;;;;8.27;5.90;;;128.50;2252.80;;;;;;4972866;28;20023;-60
2023/03/07 05:44:02;;;;;;;9.75;5.63;;;128.70;2252.80;;;;;;4972885;28;20101;-58
2023/03/07 05:46:28;;;;;;;6.95;4.55;;;128.90;2252.80;;;;;;4973034;28;20023;-60
2023/03/07 05:48:54;;;;;;;11.35;5.75;;;153.70;2252.80;;;;;;4972434;28;20051;-65
2023/03/07 05:51:20;;;;;;;19.58;11.35;;;154.00;2252.80;;;;;;4972748;28;20038;-64
2023/03/07 05:53:46;;;;;;;25.55;16.23;;;154.20;2252.80;;;;;;4972688;28;20082;-60
2023/03/07 05:56:12;;;;;;;21.25;13.85;;;154.30;2252.80;;;;;;4972591;28;20034;-63
2023/03/07 05:58:38;;;;;;;19.85;12.00;;;154.50;2252.80;;;;;;4959768;28;20488;-64
2023/03/07 06:01:04;;;;;;;18.70;11.55;;;179.20;2252.80;;;;;;4972317;28;20034;-68
2023/03/07 06:03:30;;;;;;;29.70;19.77;;;179.50;2252.80;;;;;;4954906;28;20042;-64
2023/03/07 06:05:56;;;;;;;29.35;20.10;;;179.80;2252.80;;;;;;4972380;28;20034;-61
2023/03/07 06:08:22;;;;;;;17.27;12.00;;;179.90;2252.80;;;;;;4972201;28;20031;-59
2023/03/07 06:10:51;;;;;;;20.83;14.25;;;180.00;2252.80;;;;;;4972565;28;20106;-60
2023/03/07 06:13:19;;;;;;;23.77;16.60;;;179.90;2252.80;;;;;;4959980;28;20027;-59
2023/03/07 06:15:57;;;;;;;27.92;16.58;;;180.00;2252.80;;;;;;4972597;28;20074;-66
2023/03/07 06:18:24;;;;;;;77.85;43.15;;;204.80;2252.80;;;;;;4972035;28;20413;-59
2023/03/07 06:20:57;;;;;;;51.15;32.85;;;205.10;2252.80;;;;;;4972033;28;20043;-59
2023/03/07 06:23:23;;;;;;;;;;;205.20;2252.80;;;;;;4972423;28;20027;-60
2023/03/07 06:25:49;;;;;;;37.15;22.13;;;205.30;2252.80;;;;;;4971864;28;20365;-59
2023/03/07 06:28:15;;;;;;;193.15;129.85;;;205.20;2252.80;;;;;;4972146;28;20031;-60
2023/03/07 06:30:40;;;;;;;371.45;248.95;;;205.60;2252.80;;;;;;4971538;28;20026;-64
2023/03/07 06:33:06;;;;;;;67.68;46.20;;;256.90;2252.80;;;;;;4954583;28;20035;-59
2023/03/07 06:35:32;;;;;;;68.78;49.22;;;332.80;2329.60;;;;;;4971735;28;20029;-65
2023/03/07 06:37:58;;;;;;;55.55;38.42;;;359.10;2099.20;;;;;;4971743;28;20030;-60
2023/03/07 06:40:24;;;;;;;39.25;28.05;;;409.70;1996.80;;;;;;4971817;28;20056;-63
2023/03/07 06:42:52;;;;;;;37.13;29.02;;;435.30;1894.40;;;;;;4972060;28;20520;-61
2023/03/07 06:45:18;;;;;;;33.35;23.65;;;436.00;1792.00;;;;;;4954303;28;20035;-61
2023/03/07 06:47:43;;;;;;;20.45;15.50;;;435.50;1766.40;;;;;;4971832;28;20027;-60
2023/03/07 06:50:10;;;;;;;19.02;11.98;;;410.40;1792.00;;;;;;4971337;28;20046;-61
2023/03/07 06:52:36;;;;;;;22.65;11.32;;;410.00;1792.00;;;;;;4971810;28;20066;-69
2023/03/07 06:55:02;;;;;;;21.90;13.85;;;409.70;1817.60;;;;;;4971312;28;20022;-69
2023/03/07 06:57:28;;;;;;;16.40;10.27;;;384.00;1843.20;;;;;;4971785;28;20023;-61
2023/03/07 06:59:54;;;;;;;14.02;9.70;;;333.60;1971.20;;;;;;4971564;28;20509;-61
2023/03/07 07:02:20;;;;;;;15.02;9.63;;;308.00;2048.00;;;;;;4971552;28;20026;-62
2023/03/07 07:04:46;;;;;;;13.63;9.32;;;282.30;2150.40;;;;;;4971611;28;20478;-60
2023/03/07 07:07:11;;;;;;;16.67;9.82;;;281.70;2227.20;;;;;;4971365;28;20076;-63
2023/03/07 07:09:37;;;;;;;14.63;10.57;;;256.50;2252.80;;;;;;4971275;28;20089;-66
2023/03/07 07:12:04;;;;;;;12.48;7.72;;;256.00;2252.80;;;;;;4970788;28;20023;-60
2023/03/07 07:14:32;;;;;;;14.68;11.02;;;231.30;2252.80;;;;;;4971028;28;20034;-62
2023/03/07 07:16:57;;;;;;;19.35;12.48;;;231.10;2252.80;;;;;;4971672;28;20029;-59
2023/03/07 07:19:25;;;;;;;18.20;11.90;;;231.10;2252.80;;;;;;4953516;28;20054;-58
2023/03/07 07:21:51;;;;;;;18.95;12.45;;;231.10;2252.80;;;;;;4971034;28;20378;-62
2023/03/07 07:24:16;;;;;;;30.50;26.02;;;256.50;2252.80;;;;;;4953402;28;20035;-60
2023/03/07 07:26:42;;;;;;;252.43;175.35;;;307.30;2304.00;;;;;;4970994;28;20027;-62
2023/03/07 07:29:08;;;;;;;29.88;24.33;;;333.00;2278.40;;;;;;4971186;28;20109;-61
2023/03/07 07:31:34;;;;;;;16.95;10.57;;;333.70;2176.00;;;;;;4971224;28;20030;-61
2023/03/07 07:34:00;;;;;;;21.90;18.25;;;359.00;2099.20;;;;;;4970850;28;20027;-60
2023/03/07 07:36:25;;;;;;;17.00;9.63;;;435.60;1868.80;;;;;;4963093;28;20084;-62
2023/03/07 07:38:51;;;;;;;15.02;8.77;;;461.50;1766.40;;;;;;4948489;28;20047;-62
2023/03/07 07:41:17;;;;;;;10.98;7.70;;;487.30;1638.40;;;;;;4971235;28;20469;-61
2023/03/07 07:43:45;;;;;;;10.80;7.25;;;512.70;1587.20;;;;;;4970733;28;20041;-60
2023/03/07 07:46:11;;;;;;;9.38;8.05;;;537.70;1536.00;;;;;;4970977;28;20018;-61
2023/03/07 07:48:37;;;;;;;14.05;10.88;;;564.10;1484.80;;;;;;4970556;28;20058;-61
2023/03/07 07:51:03;;;;;;;14.65;12.15;;;614.90;1408.00;;;;;;4971047;28;20031;-60
2023/03/07 07:53:29;;;;;;;18.73;15.55;;;665.90;1305.60;;;;;;4970841;28;20034;-61
2023/03/07 07:55:55;;;;;;;17.35;14.82;;;666.20;1254.40;;;;;;4971167;28;20378;-69
2023/03/07 07:58:20;;;;;;;32.42;28.95;;;692.10;1203.20;;;;;;4970532;28;20039;-69
2023/03/07 08:00:46;;;;;;;58.13;52.55;;;717.30;1177.60;;;;;;4971282;28;20027;-60
2023/03/07 08:03:12;;;;;;;34.50;30.63;;;717.00;1203.20;;;;;;4970640;28;20505;-66
2023/03/07 08:05:42;;;;;;;76.13;68.72;;;614.60;1305.60;;;;;;4971113;28;20093;-69
2023/03/07 08:08:08;;;;;;;42.75;34.20;;;563.20;1433.60;;;;;;4970265;28;20058;-61
2023/03/07 08:10:34;;;;;;;63.50;47.63;;;512.80;1408.00;;;;;;4970691;28;20151;-67
2023/03/07 08:13:00;;;;;;;71.20;56.50;;;512.90;1408.00;;;;;;4970789;28;20018;-68
2023/03/07 08:15:25;;;;;;;59.47;51.55;;;563.60;1382.40;;;;;;4970663;28;20378;-69
2023/03/07 08:17:51;;;;;;;64.63;57.67;;;589.50;1331.20;;;;;;4970448;28;20027;-66
2023/03/07 08:20:21;;;;;;;61.10;53.22;;;614.40;1305.60;;;;;;4970754;28;20445;-60
2023/03/07 08:22:48;;;;;;;98.18;72.50;;;614.40;1331.20;;;;;;4970251;28;20089;-61
2023/03/07 08:25:21;;;;;;;66.45;54.03;;;614.50;1331.20;;;;;;4974357;28;20031;-63
2023/03/07 08:27:51;;;;;;;80.15;69.57;;;614.80;1331.20;;;;;;4974397;28;20022;-61
2023/03/07 08:30:18;;;;;;;74.45;58.67;;;615.30;1331.20;;;;;;4974512;28;20030;-60
2023/03/07 08:32:44;;;;;;;73.05;58.40;;;614.40;1356.80;;;;;;4974453;28;20019;-61
2023/03/07 08:35:09;;;;;;;64.38;54.47;;;615.20;1305.60;;;;;;4974213;28;20540;-61
2023/03/07 08:37:35;;;;;;;65.78;58.58;;;640.10;1280.00;;;;;;4974162;28;20073;-60
2023/03/07 08:40:01;;;;;;;69.82;60.65;;;614.90;1331.20;;;;;;4973925;28;20385;-63
2023/03/07 08:42:27;;;;;;;83.60;72.80;;;615.30;1331.20;;;;;;4974103;28;20061;-60
2023/03/07 08:44:52;;;;;;;78.22;63.30;;;615.00;1331.20;;;;;;4973989;28;20030;-69
2023/03/07 08:47:18;;;;;;;74.47;64.70;;;640.70;1280.00;;;;;;4973953;28;20027;-62
2023/03/07 08:49:44;;;;;;;69.03;61.65;;;614.70;1331.20;;;;;;4973951;28;20098;-64
2023/03/07 08:52:09;;;;;;;214.23;157.15;;;614.60;1356.80;;;;;;4973279;28;20027;-67
2023/03/07 08:54:35;;;;;;;55.80;46.30;;;615.20;1305.60;;;;;;4973881;28;20042;-68
2023/03/07 08:57:01;;;;;;;62.08;51.13;;;614.50;1331.20;;;;;;4973473;28;20682;-64
2023/03/07 08:59:26;;;;;;;60.95;54.45;;;615.30;1254.40;;;;;;4974002;28;20031;-64
2023/03/07 09:01:52;;;;;;;66.28;56.10;;;589.50;1331.20;;;;;;4956050;28;20432;-60
2023/03/07 09:04:18;;;;;;;92.85;66.30;;;614.50;1356.80;;;;;;4973758;28;20117;-61
2023/03/07 09:06:43;;;;;;;57.35;48.00;;;614.70;1305.60;;;;;;4973687;28;20418;-66
2023/03/07 09:09:09;;;;;;;63.65;52.88;;;588.90;1356.80;;;;;;4973258;28;20031;-61
2023/03/07 09:11:35;;;;;;;39.67;29.95;;;614.40;1331.20;;;;;;4973215;28;20022;-61
2023/03/07 09:14:01;;;;;;;33.72;27.92;;;589.20;1331.20;;;;;;4973176;28;20086;-60
2023/03/07 09:16:26;;;;;;;47.60;37.40;;;564.10;1382.40;;;;;;4973606;28;20059;-63
2023/03/07 09:18:52;;;;;;;42.30;31.67;;;589.50;1331.20;;;;;;4973180;28;20038;-68
2023/03/07 09:21:18;;;;;;;28.95;25.45;;;614.60;1305.60;;;;;;4973368;28;20094;-60
2023/03/07 09:23:43;;;;;;;36.20;29.17;;;588.80;1331.20;;;;;;4973448;28;20054;-69
2023/03/07 09:26:09;;;;;;;34.20;29.58;;;538.50;1408.00;;;;;;4976737;28;20468;-65
2023/03/07 09:28:35;;;;;;;45.95;35.63;;;538.50;1382.40;;;;;;4982780;28;20146;-60
2023/03/07 09:31:09;;;;;;;33.70;25.33;;;537.60;1459.20;;;;;;4972824;28;20027;-60
2023/03/07 09:33:35;;;;;;;39.03;27.15;;;512.00;1459.20;;;;;;4973138;28;20023;-63
2023/03/07 09:36:09;;;;;;;48.22;34.33;;;487.20;1510.40;;;;;;4972138;28;20038;-60
2023/03/07 09:38:35;;;;;;;28.98;20.38;;;512.40;1459.20;;;;;;4973196;28;20026;-61
2023/03/07 09:41:11;;;;;;;35.70;23.83;;;512.40;1459.20;;;;;;4972856;28;20030;-60
2023/03/07 09:43:50;;;;;;;26.25;21.20;;;512.20;1459.20;;;;;;4973015;28;20019;-61
2023/03/07 09:46:25;;;;;;;28.27;19.00;;;512.30;1484.80;;;;;;4973371;28;20480;-60
2023/03/07 09:49:02;;;;;;;34.38;23.95;;;487.00;1510.40;;;;;;4972413;28;20509;-61
2023/03/07 09:51:40;;;;;;;18.98;15.23;;;487.30;1459.20;;;;;;4972878;28;20031;-60
2023/03/07 09:54:14;;;;;;;21.85;17.60;;;512.30;1459.20;;;;;;4960091;28;20046;-61
2023/03/07 09:56:50;;;;;;;25.55;19.38;;;512.30;1433.60;;;;;;4972658;28;20081;-62
2023/03/07 09:59:23;;;;;;;17.30;13.90;;;486.70;1484.80;;;;;;4972437;28;20493;-60
2023/03/07 10:02:00;;;;;;;24.50;15.47;;;486.90;1459.20;;;;;;4972718;28;20027;-61
2023/03/07 10:04:42;;;;;;;25.27;14.65;;;487.00;1433.60;;;;;;4972691;28;20810;-61
2023/03/07 10:07:10;;;;;;;17.08;13.02;;;486.70;1484.80;;;;;;4972643;28;20028;-61
2023/03/07 10:09:35;;;;;;;16.48;13.63;;;486.40;1484.80;;;;;;4972230;28;20058;-60
2023/03/07 10:12:24;;;;;;;16.40;12.45;;;486.40;1484.80;;;;;;4971995;28;20053;-61
2023/03/07 10:15:25;;;;;;;20.27;12.98;;;486.40;1484.80;;;;;;4972038;28;20374;-60
2023/03/07 10:18:14;;;;;;;18.80;12.75;;;461.50;1510.40;;;;;;4971984;28;20027;-60
2023/03/07 10:20:52;;;;;;;21.85;12.43;;;460.90;1536.00;;;;;;4972121;28;20031;-63
2023/03/07 10:23:31;;;;;;;19.80;12.88;;;461.10;1510.40;;;;;;4971851;28;20473;-61
2023/03/07 10:26:10;;;;;;;18.95;11.82;;;460.90;1536.00;;;;;;4972079;28;20019;-62
2023/03/07 10:28:39;;;;;;;13.25;10.32;;;435.80;1536.00;;;;;;4972036;28;20054;-60
2023/03/07 10:31:21;;;;;;;16.80;11.35;;;461.20;1536.00;;;;;;4972159;28;20049;-60
2023/03/07 10:33:49;;;;;;;17.25;11.23;;;435.90;1536.00;;;;;;4971866;28;20433;-63
2023/03/07 10:36:19;;;;;;;21.27;12.80;;;435.90;1536.00;;;;;;4971993;28;20031;-60
2023/03/07 10:39:15;;;;;;;22.63;13.43;;;436.00;1510.40;;;;;;4971663;28;20034;-60
2023/03/07 10:41:40;;;;;;;22.83;11.38;;;436.10;1536.00;;;;;;4971518;28;20548;-64
2023/03/07 10:44:16;;;;;;;13.57;7.53;;;435.80;1536.00;;;;;;4971554;28;20027;-60
2023/03/07 10:46:43;;;;;;;12.80;9.77;;;435.90;1484.80;;;;;;4971507;28;20029;-61
2023/03/07 10:49:30;;;;;;;14.27;10.80;;;460.90;1561.60;;;;;;4958580;28;20046;-65
2023/03/07 10:52:17;;;;;;;13.60;8.95;;;461.20;1561.60;;;;;;4968808;28;20377;-60
2023/03/07 10:54:42;;;;;;;10.70;8.20;;;461.40;1561.60;;;;;;4952146;28;20023;-60
2023/03/07 10:57:09;;;;;;;13.77;9.35;;;461.70;1510.40;;;;;;4970883;28;20022;-60
2023/03/07 10:59:37;;;;;;;16.20;11.45;;;461.70;1484.80;;;;;;4971766;28;20038;-62
2023/03/07 11:02:31;;;;;;;13.95;9.68;;;461.00;1484.80;;;;;;4971537;28;20497;-63
2023/03/07 11:04:57;;;;;;;16.80;10.60;;;436.10;1484.80;;;;;;4971465;28;20377;-61
2023/03/07 11:07:22;;;;;;;18.27;9.55;;;461.00;1536.00;;;;;;4971532;28;20106;-63
2023/03/07 11:09:48;;;;;;;13.90;8.48;;;461.00;1561.60;;;;;;4971030;28;20105;-60
2023/03/07 11:12:19;;;;;;;10.60;8.07;;;461.20;1510.40;;;;;;4971333;28;20432;-60
2023/03/07 11:15:07;;;;;;;14.57;8.05;;;461.20;1510.40;;;;;;4971307;28;20014;-60
2023/03/07 11:17:45;;;;;;;13.75;8.40;;;461.20;1459.20;;;;;;4971128;28;20037;-60
2023/03/07 11:20:46;;;;;;;12.38;7.30;;;461.20;1510.40;;;;;;4970915;28;20031;-65
2023/03/07 11:23:24;;;;;;;13.10;8.98;;;436.10;1459.20;;;;;;4958058;28;20031;-60
2023/03/07 11:25:52;;;;;;;17.98;13.57;;;461.10;1484.80;;;;;;4970820;28;20023;-60
2023/03/07 11:28:33;;;;;;;8.45;5.07;;;461.40;1484.80;;;;;;4971461;28;20094;-60
2023/03/07 11:31:03;;;;;;;21.85;12.93;;;461.00;1433.60;;;;;;4970957;28;20434;-60
2023/03/07 11:34:07;;;;;;;24.13;10.55;;;461.20;1459.20;;;;;;4971166;28;20058;-58
2023/03/07 11:36:36;;;;;;;;;;;461.40;1459.20;;;;;;4883903;29;20064;-60
2023/03/07 11:39:10;;;;;;;11.50;6.97;;;461.00;1459.20;;;;;;4873620;29;19922;-60
2023/03/07 11:41:50;;;;;;;22.65;10.75;;;460.80;1459.20;;;;;;4874074;29;20037;-60
2023/03/07 11:44:37;;;;;;;25.92;14.82;;;460.90;1459.20;;;;;;4873865;29;20040;-63
2023/03/07 11:47:29;;;;;;;19.60;14.98;;;461.10;1459.20;;;;;;4873746;29;20527;-68
2023/03/07 11:50:19;;;;;;;20.65;13.60;;;460.90;1433.60;;;;;;4889088;29;20060;-61
2023/03/07 11:52:55;;;;;;;15.05;9.65;;;460.90;1459.20;;;;;;4863407;29;20101;-62
2023/03/07 11:55:59;;;;;;;18.40;13.02;;;435.90;1433.60;;;;;;4889844;29;20468;-60
2023/03/07 11:58:53;;;;;;;13.65;7.13;;;460.90;1459.20;;;;;;4893216;29;20080;-60
2023/03/07 12:01:29;;;;;;;17.95;11.32;;;460.90;1459.20;;;;;;4896343;29;20032;-65
2023/03/07 12:04:06;;;;;;;16.95;12.23;;;461.00;1459.20;;;;;;4896533;29;20036;-61
2023/03/07 12:06:48;;;;;;;35.67;20.63;;;461.20;1459.20;;;;;;4896060;29;20164;-60
2023/03/07 12:09:44;;;;;;;21.63;13.23;;;461.20;1433.60;;;;;;4896196;29;20025;-68
2023/03/07 12:12:15;;;;;;;10.90;8.05;;;461.50;1433.60;;;;;;4874487;29;20056;-60